sensor_id;sensor_type;location;lat;lon;timestamp;pressure;altitude;pressure_sealevel;temperature;humidity
49122;BME280;35529;44.342;25.944;2023-08-31T00:02:19;99946.00;;;23.31;100.00
49122;BME280;35529;44.342;25.944;2023-08-31T00:04:45;99939.19;;;23.33;100.00
49122;BME280;35529;44.342;25.944;2023-08-31T00:07:11;99933.78;;;23.33;100.00
49122;BME280;35529;44.342;25.944;2023-08-31T00:09:38;99925.47;;;23.30;100.00
49122;BME280;35529;44.342;25.944;2023-08-31T00:12:05;99927.94;;;23.26;100.00
49122;BME280;35529;44.342;25.944;2023-08-31T00:14:31;99926.09;;;23.21;100.00
49122;BME280;35529;44.342;25.944;2023-08-31T00:16:58;99919.31;;;23.24;100.00
49122;BME280;35529;44.342;25.944;2023-08-31T00:19:28;99919.53;;;23.27;100.00
49122;BME280;35529;44.342;25.944;2023-08-31T00:21:54;99920.63;;;23.26;100.00
49122;BME280;35529;44.342;25.944;2023-08-31T00:24:20;99915.44;;;23.30;100.00
49122;BME280;35529;44.342;25.944;2023-08-31T00:26:57;99912.13;;;23.33;100.00
49122;BME280;35529;44.342;25.944;2023-08-31T00:29:23;99912.94;;;23.34;100.00
49122;BME280;35529;44.342;25.944;2023-08-31T00:31:51;99916.75;;;23.33;100.00
49122;BME280;35529;44.342;25.944;2023-08-31T00:34:19;99925.16;;;23.31;100.00
49122;BME280;35529;44.342;25.944;2023-08-31T00:36:45;99920.53;;;23.32;100.00
49122;BME280;35529;44.342;25.944;2023-08-31T00:39:14;99927.56;;;23.33;100.00
49122;BME280;35529;44.342;25.944;2023-08-31T00:41:40;99929.69;;;23.36;100.00
49122;BME280;35529;44.342;25.944;2023-08-31T00:44:06;99932.19;;;23.32;100.00
49122;BME280;35529;44.342;25.944;2023-08-31T00:46:33;99933.44;;;23.21;100.00
49122;BME280;35529;44.342;25.944;2023-08-31T00:49:00;99939.50;;;23.13;100.00
49122;BME280;35529;44.342;25.944;2023-08-31T00:51:29;99937.88;;;23.12;100.00
49122;BME280;35529;44.342;25.944;2023-08-31T00:53:56;99942.81;;;23.09;100.00
49122;BME280;35529;44.342;25.944;2023-08-31T00:56:26;99949.50;;;22.93;100.00
49122;BME280;35529;44.342;25.944;2023-08-31T00:58:55;99954.13;;;22.73;100.00
49122;BME280;35529;44.342;25.944;2023-08-31T01:01:23;99950.31;;;22.74;100.00
49122;BME280;35529;44.342;25.944;2023-08-31T01:06:40;99961.00;;;22.85;100.00
49122;BME280;35529;44.342;25.944;2023-08-31T01:14:02;99970.16;;;22.89;100.00
49122;BME280;35529;44.342;25.944;2023-08-31T01:16:34;99972.34;;;22.87;100.00
49122;BME280;35529;44.342;25.944;2023-08-31T01:19:04;99974.03;;;22.83;100.00
49122;BME280;35529;44.342;25.944;2023-08-31T01:21:38;99969.41;;;22.83;100.00
49122;BME280;35529;44.342;25.944;2023-08-31T01:24:06;99966.72;;;22.83;100.00
49122;BME280;35529;44.342;25.944;2023-08-31T01:26:32;99962.63;;;22.86;100.00
49122;BME280;35529;44.342;25.944;2023-08-31T01:29:01;99965.63;;;22.84;100.00
49122;BME280;35529;44.342;25.944;2023-08-31T01:31:27;99969.72;;;22.82;100.00
49122;BME280;35529;44.342;25.944;2023-08-31T01:33:56;99958.34;;;22.80;100.00
49122;BME280;35529;44.342;25.944;2023-08-31T01:36:28;99958.41;;;22.74;100.00
49122;BME280;35529;44.342;25.944;2023-08-31T01:38:58;99963.56;;;22.76;100.00
49122;BME280;35529;44.342;25.944;2023-08-31T01:41:26;99959.25;;;22.75;100.00
49122;BME280;35529;44.342;25.944;2023-08-31T01:43:57;99959.53;;;22.73;100.00
49122;BME280;35529;44.342;25.944;2023-08-31T01:46:24;99960.63;;;22.72;100.00
49122;BME280;35529;44.342;25.944;2023-08-31T01:48:50;99955.81;;;22.69;100.00
49122;BME280;35529;44.342;25.944;2023-08-31T01:51:16;99955.28;;;22.67;100.00
49122;BME280;35529;44.342;25.944;2023-08-31T01:53:44;99957.19;;;22.67;100.00
49122;BME280;35529;44.342;25.944;2023-08-31T01:56:10;99964.72;;;22.70;100.00
49122;BME280;35529;44.342;25.944;2023-08-31T01:58:36;99947.38;;;22.71;100.00
49122;BME280;35529;44.342;25.944;2023-08-31T02:01:02;99952.50;;;22.72;100.00
49122;BME280;35529;44.342;25.944;2023-08-31T02:03:28;99949.19;;;22.56;100.00
49122;BME280;35529;44.342;25.944;2023-08-31T02:05:54;99950.97;;;22.42;100.00
49122;BME280;35529;44.342;25.944;2023-08-31T02:08:21;99945.56;;;22.42;100.00
49122;BME280;35529;44.342;25.944;2023-08-31T02:10:47;99948.88;;;22.39;100.00
49122;BME280;35529;44.342;25.944;2023-08-31T02:13:14;99956.22;;;22.33;100.00
49122;BME280;35529;44.342;25.944;2023-08-31T02:15:42;99961.72;;;22.23;100.00
49122;BME280;35529;44.342;25.944;2023-08-31T02:18:09;99956.59;;;22.21;100.00
49122;BME280;35529;44.342;25.944;2023-08-31T02:20:35;99961.31;;;22.10;100.00
49122;BME280;35529;44.342;25.944;2023-08-31T02:23:01;99960.81;;;22.03;100.00
49122;BME280;35529;44.342;25.944;2023-08-31T02:25:27;99970.19;;;21.87;100.00
49122;BME280;35529;44.342;25.944;2023-08-31T02:27:54;99969.75;;;21.74;100.00
49122;BME280;35529;44.342;25.944;2023-08-31T02:30:21;99978.28;;;21.52;100.00
49122;BME280;35529;44.342;25.944;2023-08-31T02:32:47;99974.53;;;21.53;100.00
49122;BME280;35529;44.342;25.944;2023-08-31T02:35:13;99966.69;;;21.52;100.00
49122;BME280;35529;44.342;25.944;2023-08-31T02:37:39;99970.63;;;21.30;100.00
49122;BME280;35529;44.342;25.944;2023-08-31T02:40:05;99974.25;;;21.10;100.00
49122;BME280;35529;44.342;25.944;2023-08-31T02:42:32;99968.91;;;21.00;100.00
49122;BME280;35529;44.342;25.944;2023-08-31T02:44:58;99967.25;;;21.04;100.00
49122;BME280;35529;44.342;25.944;2023-08-31T02:47:24;99975.94;;;20.96;100.00
49122;BME280;35529;44.342;25.944;2023-08-31T02:49:50;99980.56;;;20.90;100.00
49122;BME280;35529;44.342;25.944;2023-08-31T02:52:16;99981.00;;;21.13;100.00
49122;BME280;35529;44.342;25.944;2023-08-31T02:54:42;99981.19;;;21.21;100.00
49122;BME280;35529;44.342;25.944;2023-08-31T02:57:09;99978.25;;;21.18;100.00
49122;BME280;35529;44.342;25.944;2023-08-31T02:59:35;99984.78;;;21.06;100.00
49122;BME280;35529;44.342;25.944;2023-08-31T03:02:04;99982.94;;;21.02;100.00
49122;BME280;35529;44.342;25.944;2023-08-31T03:04:31;99976.16;;;21.04;100.00
49122;BME280;35529;44.342;25.944;2023-08-31T03:06:57;99981.34;;;20.96;100.00
49122;BME280;35529;44.342;25.944;2023-08-31T03:09:23;99986.94;;;21.04;100.00
49122;BME280;35529;44.342;25.944;2023-08-31T03:11:49;99986.47;;;20.97;100.00
49122;BME280;35529;44.342;25.944;2023-08-31T03:14:15;99980.56;;;20.90;100.00
49122;BME280;35529;44.342;25.944;2023-08-31T03:16:41;99972.28;;;20.71;100.00
49122;BME280;35529;44.342;25.944;2023-08-31T03:19:07;99981.47;;;20.59;100.00
49122;BME280;35529;44.342;25.944;2023-08-31T03:21:36;99990.94;;;20.52;100.00
49122;BME280;35529;44.342;25.944;2023-08-31T03:24:03;99987.72;;;20.50;100.00
49122;BME280;35529;44.342;25.944;2023-08-31T03:26:29;99997.44;;;20.40;100.00
49122;BME280;35529;44.342;25.944;2023-08-31T03:28:56;99999.66;;;20.28;100.00
49122;BME280;35529;44.342;25.944;2023-08-31T03:31:22;100001.78;;;20.26;100.00
49122;BME280;35529;44.342;25.944;2023-08-31T03:33:49;100002.34;;;20.23;100.00
49122;BME280;35529;44.342;25.944;2023-08-31T03:36:15;100010.44;;;20.07;100.00
49122;BME280;35529;44.342;25.944;2023-08-31T03:38:41;100017.72;;;20.07;100.00
49122;BME280;35529;44.342;25.944;2023-08-31T03:41:07;100020.38;;;20.22;100.00
49122;BME280;35529;44.342;25.944;2023-08-31T03:43:33;100020.09;;;20.29;100.00
49122;BME280;35529;44.342;25.944;2023-08-31T03:46:00;100011.22;;;20.39;100.00
49122;BME280;35529;44.342;25.944;2023-08-31T03:48:26;100012.78;;;20.45;100.00
49122;BME280;35529;44.342;25.944;2023-08-31T03:50:52;100011.72;;;20.41;100.00
49122;BME280;35529;44.342;25.944;2023-08-31T03:53:19;100006.34;;;20.41;100.00
49122;BME280;35529;44.342;25.944;2023-08-31T03:55:45;100003.84;;;20.60;100.00
49122;BME280;35529;44.342;25.944;2023-08-31T03:58:12;100013.56;;;20.76;100.00
49122;BME280;35529;44.342;25.944;2023-08-31T04:00:38;100011.59;;;20.92;100.00
49122;BME280;35529;44.342;25.944;2023-08-31T04:03:04;100015.56;;;21.05;100.00
49122;BME280;35529;44.342;25.944;2023-08-31T04:05:34;100014.75;;;21.05;100.00
49122;BME280;35529;44.342;25.944;2023-08-31T04:08:00;100015.63;;;20.95;100.00
49122;BME280;35529;44.342;25.944;2023-08-31T04:10:26;100012.44;;;20.83;100.00
49122;BME280;35529;44.342;25.944;2023-08-31T04:12:53;100015.63;;;20.95;100.00
49122;BME280;35529;44.342;25.944;2023-08-31T04:15:19;100028.25;;;21.10;100.00
49122;BME280;35529;44.342;25.944;2023-08-31T04:17:45;100031.13;;;21.24;100.00
49122;BME280;35529;44.342;25.944;2023-08-31T04:20:11;100032.44;;;21.32;100.00
49122;BME280;35529;44.342;25.944;2023-08-31T04:22:38;100031.06;;;21.39;100.00
49122;BME280;35529;44.342;25.944;2023-08-31T04:25:04;100033.75;;;21.39;100.00
49122;BME280;35529;44.342;25.944;2023-08-31T04:27:31;100026.44;;;21.40;100.00
49122;BME280;35529;44.342;25.944;2023-08-31T04:30:00;100037.03;;;21.31;100.00
49122;BME280;35529;44.342;25.944;2023-08-31T04:32:27;100032.63;;;21.40;100.00
49122;BME280;35529;44.342;25.944;2023-08-31T04:34:53;100031.28;;;21.43;100.00
49122;BME280;35529;44.342;25.944;2023-08-31T04:37:20;100036.78;;;21.27;100.00
49122;BME280;35529;44.342;25.944;2023-08-31T04:39:46;100043.53;;;21.25;100.00
49122;BME280;35529;44.342;25.944;2023-08-31T04:42:12;100049.84;;;21.05;100.00
49122;BME280;35529;44.342;25.944;2023-08-31T04:44:38;100047.38;;;21.14;100.00
49122;BME280;35529;44.342;25.944;2023-08-31T04:47:07;100048.72;;;21.16;100.00
49122;BME280;35529;44.342;25.944;2023-08-31T04:49:33;100048.34;;;21.33;100.00
49122;BME280;35529;44.342;25.944;2023-08-31T04:52:00;100057.47;;;21.48;100.00
49122;BME280;35529;44.342;25.944;2023-08-31T04:54:26;100059.03;;;21.59;100.00
49122;BME280;35529;44.342;25.944;2023-08-31T04:56:52;100063.38;;;21.50;100.00
49122;BME280;35529;44.342;25.944;2023-08-31T04:59:18;100060.13;;;21.53;100.00
49122;BME280;35529;44.342;25.944;2023-08-31T05:01:44;100067.13;;;21.59;100.00
49122;BME280;35529;44.342;25.944;2023-08-31T05:04:10;100070.53;;;21.75;100.00
49122;BME280;35529;44.342;25.944;2023-08-31T05:06:36;100073.63;;;21.98;100.00
49122;BME280;35529;44.342;25.944;2023-08-31T05:09:02;100070.06;;;22.02;100.00
49122;BME280;35529;44.342;25.944;2023-08-31T05:11:29;100063.72;;;22.17;100.00
49122;BME280;35529;44.342;25.944;2023-08-31T05:13:55;100076.34;;;22.27;100.00
49122;BME280;35529;44.342;25.944;2023-08-31T05:16:24;100075.13;;;22.43;100.00
49122;BME280;35529;44.342;25.944;2023-08-31T05:18:50;100075.47;;;22.61;100.00
49122;BME280;35529;44.342;25.944;2023-08-31T05:21:16;100073.22;;;22.73;100.00
49122;BME280;35529;44.342;25.944;2023-08-31T05:23:42;100080.22;;;22.99;100.00
49122;BME280;35529;44.342;25.944;2023-08-31T05:26:08;100067.78;;;23.22;100.00
49122;BME280;35529;44.342;25.944;2023-08-31T05:28:34;100068.38;;;23.38;100.00
49122;BME280;35529;44.342;25.944;2023-08-31T05:31:00;100062.16;;;23.56;100.00
49122;BME280;35529;44.342;25.944;2023-08-31T05:33:27;100060.88;;;23.68;100.00
49122;BME280;35529;44.342;25.944;2023-08-31T05:35:54;100065.25;;;23.83;100.00
49122;BME280;35529;44.342;25.944;2023-08-31T05:38:21;100068.25;;;24.00;100.00
49122;BME280;35529;44.342;25.944;2023-08-31T05:40:47;100066.53;;;24.23;100.00
49122;BME280;35529;44.342;25.944;2023-08-31T05:43:13;100067.84;;;24.26;100.00
49122;BME280;35529;44.342;25.944;2023-08-31T05:45:39;100073.50;;;24.43;100.00
49122;BME280;35529;44.342;25.944;2023-08-31T05:48:07;100074.56;;;24.75;100.00
49122;BME280;35529;44.342;25.944;2023-08-31T05:50:33;100067.78;;;25.01;100.00
49122;BME280;35529;44.342;25.944;2023-08-31T05:52:59;100076.63;;;25.20;100.00
49122;BME280;35529;44.342;25.944;2023-08-31T05:55:25;100070.50;;;25.15;100.00
49122;BME280;35529;44.342;25.944;2023-08-31T05:57:51;100081.44;;;25.37;100.00
49122;BME280;35529;44.342;25.944;2023-08-31T06:00:18;100076.19;;;25.77;100.00
49122;BME280;35529;44.342;25.944;2023-08-31T06:02:44;100082.75;;;26.22;100.00
49122;BME280;35529;44.342;25.944;2023-08-31T06:05:13;100082.59;;;26.58;100.00
49122;BME280;35529;44.342;25.944;2023-08-31T06:07:42;100080.09;;;26.71;100.00
49122;BME280;35529;44.342;25.944;2023-08-31T06:10:09;100089.28;;;26.84;100.00
49122;BME280;35529;44.342;25.944;2023-08-31T06:12:35;100083.06;;;26.92;100.00
49122;BME280;35529;44.342;25.944;2023-08-31T06:15:02;100082.63;;;27.07;100.00
49122;BME280;35529;44.342;25.944;2023-08-31T06:17:29;100087.06;;;26.86;100.00
49122;BME280;35529;44.342;25.944;2023-08-31T06:19:55;100087.06;;;26.86;100.00
49122;BME280;35529;44.342;25.944;2023-08-31T06:22:21;100078.91;;;26.95;100.00
49122;BME280;35529;44.342;25.944;2023-08-31T06:24:50;100089.50;;;27.05;100.00
49122;BME280;35529;44.342;25.944;2023-08-31T06:27:17;100086.47;;;27.06;100.00
49122;BME280;35529;44.342;25.944;2023-08-31T06:29:43;100088.41;;;27.15;100.00
49122;BME280;35529;44.342;25.944;2023-08-31T06:32:10;100093.38;;;27.21;100.00
49122;BME280;35529;44.342;25.944;2023-08-31T06:34:36;100103.34;;;27.26;100.00
49122;BME280;35529;44.342;25.944;2023-08-31T06:37:02;100100.94;;;27.33;100.00
49122;BME280;35529;44.342;25.944;2023-08-31T06:39:29;100101.09;;;27.28;100.00
49122;BME280;35529;44.342;25.944;2023-08-31T06:41:55;100101.41;;;27.35;100.00
49122;BME280;35529;44.342;25.944;2023-08-31T06:44:21;100113.59;;;27.29;100.00
49122;BME280;35529;44.342;25.944;2023-08-31T06:46:47;100120.00;;;27.24;100.00
49122;BME280;35529;44.342;25.944;2023-08-31T06:49:13;100120.81;;;27.25;100.00
49122;BME280;35529;44.342;25.944;2023-08-31T06:51:41;100118.69;;;27.22;100.00
49122;BME280;35529;44.342;25.944;2023-08-31T06:54:07;100128.63;;;27.18;100.00
49122;BME280;35529;44.342;25.944;2023-08-31T06:56:34;100121.56;;;26.99;100.00
49122;BME280;35529;44.342;25.944;2023-08-31T06:59:00;100132.44;;;26.99;100.00
49122;BME280;35529;44.342;25.944;2023-08-31T07:01:26;100131.44;;;26.95;100.00
49122;BME280;35529;44.342;25.944;2023-08-31T07:03:55;100129.19;;;26.57;100.00
49122;BME280;35529;44.342;25.944;2023-08-31T07:06:21;100116.91;;;26.37;100.00
49122;BME280;35529;44.342;25.944;2023-08-31T07:08:47;100117.25;;;26.35;100.00
49122;BME280;35529;44.342;25.944;2023-08-31T07:11:14;100121.97;;;26.52;100.00
49122;BME280;35529;44.342;25.944;2023-08-31T07:13:41;100126.56;;;26.74;100.00
49122;BME280;35529;44.342;25.944;2023-08-31T07:16:07;100131.44;;;26.95;100.00
49122;BME280;35529;44.342;25.944;2023-08-31T07:18:33;100136.28;;;26.67;100.00
49122;BME280;35529;44.342;25.944;2023-08-31T07:20:59;100142.16;;;26.83;100.00
49122;BME280;35529;44.342;25.944;2023-08-31T07:23:25;100134.81;;;26.92;100.00
49122;BME280;35529;44.342;25.944;2023-08-31T07:25:51;100138.69;;;27.00;100.00
49122;BME280;35529;44.342;25.944;2023-08-31T07:28:18;100136.69;;;26.83;100.00
49122;BME280;35529;44.342;25.944;2023-08-31T07:30:44;100138.38;;;26.92;100.00
49122;BME280;35529;44.342;25.944;2023-08-31T07:33:10;100139.84;;;27.16;100.00
49122;BME280;35529;44.342;25.944;2023-08-31T07:35:36;100141.50;;;27.26;100.00
49122;BME280;35529;44.342;25.944;2023-08-31T07:38:02;100151.25;;;27.27;100.00
49122;BME280;35529;44.342;25.944;2023-08-31T07:40:29;100151.41;;;27.22;100.00
49122;BME280;35529;44.342;25.944;2023-08-31T07:42:55;100141.78;;;27.24;100.00
49122;BME280;35529;44.342;25.944;2023-08-31T07:45:21;100137.88;;;27.39;100.00
49122;BME280;35529;44.342;25.944;2023-08-31T07:47:47;100151.78;;;27.38;100.00
49122;BME280;35529;44.342;25.944;2023-08-31T07:50:14;100153.75;;;27.55;100.00
49122;BME280;35529;44.342;25.944;2023-08-31T07:52:40;100152.47;;;27.70;100.00
49122;BME280;35529;44.342;25.944;2023-08-31T07:55:06;100163.88;;;27.72;100.00
49122;BME280;35529;44.342;25.944;2023-08-31T07:57:32;100151.53;;;27.57;100.00
49122;BME280;35529;44.342;25.944;2023-08-31T08:00:00;100152.16;;;27.63;100.00
49122;BME280;35529;44.342;25.944;2023-08-31T08:02:26;100147.34;;;27.59;100.00
49122;BME280;35529;44.342;25.944;2023-08-31T08:04:52;100143.16;;;27.62;100.00
49122;BME280;35529;44.342;25.944;2023-08-31T08:07:18;100142.88;;;27.81;100.00
49122;BME280;35529;44.342;25.944;2023-08-31T08:09:44;100149.75;;;27.96;100.00
49122;BME280;35529;44.342;25.944;2023-08-31T08:12:10;100154.13;;;28.15;100.00
49122;BME280;35529;44.342;25.944;2023-08-31T08:14:36;100149.75;;;28.22;100.00
49122;BME280;35529;44.342;25.944;2023-08-31T08:17:02;100156.19;;;28.18;100.00
49122;BME280;35529;44.342;25.944;2023-08-31T08:19:29;100141.56;;;28.22;100.00
49122;BME280;35529;44.342;25.944;2023-08-31T08:21:55;100154.53;;;28.34;100.00
49122;BME280;35529;44.342;25.944;2023-08-31T08:24:21;100144.28;;;28.22;100.00
49122;BME280;35529;44.342;25.944;2023-08-31T08:29:46;100151.75;;;28.52;100.00
49122;BME280;35529;44.342;25.944;2023-08-31T08:32:18;100145.03;;;28.67;100.00
49122;BME280;35529;44.342;25.944;2023-08-31T08:34:44;100141.31;;;28.71;100.00
49122;BME280;35529;44.342;25.944;2023-08-31T08:37:14;100150.19;;;28.51;100.00
49122;BME280;35529;44.342;25.944;2023-08-31T08:39:40;100153.44;;;28.35;100.00
49122;BME280;35529;44.342;25.944;2023-08-31T08:42:11;100148.13;;;28.30;100.00
49122;BME280;35529;44.342;25.944;2023-08-31T08:44:40;100152.25;;;28.45;100.00
49122;BME280;35529;44.342;25.944;2023-08-31T08:47:07;100151.97;;;28.38;100.00
49122;BME280;35529;44.342;25.944;2023-08-31T08:49:33;100159.97;;;28.52;100.00
49122;BME280;35529;44.342;25.944;2023-08-31T08:52:02;100148.56;;;28.67;100.00
49122;BME280;35529;44.342;25.944;2023-08-31T08:54:28;100153.00;;;28.81;100.00
49122;BME280;35529;44.342;25.944;2023-08-31T08:56:54;100151.97;;;28.94;100.00
49122;BME280;35529;44.342;25.944;2023-08-31T08:59:20;100149.06;;;28.99;100.00
49122;BME280;35529;44.342;25.944;2023-08-31T09:01:49;100142.38;;;29.18;100.00
49122;BME280;35529;44.342;25.944;2023-08-31T09:04:15;100147.75;;;29.35;100.00
49122;BME280;35529;44.342;25.944;2023-08-31T09:06:44;100144.94;;;29.44;100.00
49122;BME280;35529;44.342;25.944;2023-08-31T09:09:11;100139.47;;;29.44;100.00
49122;BME280;35529;44.342;25.944;2023-08-31T09:11:40;100134.22;;;29.60;100.00
49122;BME280;35529;44.342;25.944;2023-08-31T09:14:13;100143.09;;;29.57;100.00
49122;BME280;35529;44.342;25.944;2023-08-31T09:16:51;100135.25;;;29.55;100.00
49122;BME280;35529;44.342;25.944;2023-08-31T09:19:26;100136.72;;;29.74;100.00
49122;BME280;35529;44.342;25.944;2023-08-31T09:21:55;100134.56;;;29.80;100.00
49122;BME280;35529;44.342;25.944;2023-08-31T09:24:43;100136.69;;;29.95;100.00
49122;BME280;35529;44.342;25.944;2023-08-31T09:27:10;100124.53;;;30.05;100.00
49122;BME280;35529;44.342;25.944;2023-08-31T09:32:57;100116.94;;;30.35;100.00
49122;BME280;35529;44.342;25.944;2023-08-31T09:38:29;100124.72;;;30.21;100.00
49122;BME280;35529;44.342;25.944;2023-08-31T09:41:05;100135.09;;;30.28;100.00
49122;BME280;35529;44.342;25.944;2023-08-31T09:56:25;100122.75;;;30.92;98.66
49122;BME280;35529;44.342;25.944;2023-08-31T10:04:38;100141.94;;;31.29;87.79
49122;BME280;35529;44.342;25.944;2023-08-31T10:21:36;100130.34;;;31.89;75.79
49122;BME280;35529;44.342;25.944;2023-08-31T10:24:05;100127.63;;;31.89;78.34
49122;BME280;35529;44.342;25.944;2023-08-31T10:32:32;100122.94;;;32.05;83.12
49122;BME280;35529;44.342;25.944;2023-08-31T10:35:10;100125.88;;;31.97;79.99
49122;BME280;35529;44.342;25.944;2023-08-31T10:38:15;100126.59;;;31.94;80.71
49122;BME280;35529;44.342;25.944;2023-08-31T10:48:59;100122.06;;;32.62;77.62
49122;BME280;35529;44.342;25.944;2023-08-31T10:51:30;100113.75;;;32.58;75.18
49122;BME280;35529;44.342;25.944;2023-08-31T10:59:56;100115.28;;;32.71;70.88
49122;BME280;35529;44.342;25.944;2023-08-31T11:02:51;100117.53;;;32.53;69.65
49122;BME280;35529;44.342;25.944;2023-08-31T11:05:32;100119.66;;;32.28;69.96
49122;BME280;35529;44.342;25.944;2023-08-31T11:08:07;100119.72;;;32.16;73.12
49122;BME280;35529;44.342;25.944;2023-08-31T11:13:43;100121.66;;;32.75;64.75
49122;BME280;35529;44.342;25.944;2023-08-31T11:19:42;100120.00;;;33.06;62.93
49122;BME280;35529;44.342;25.944;2023-08-31T11:22:29;100124.72;;;32.90;61.03
49122;BME280;35529;44.342;25.944;2023-08-31T11:25:14;100111.97;;;32.82;63.54
49122;BME280;35529;44.342;25.944;2023-08-31T11:30:28;100115.66;;;33.05;62.60
49122;BME280;35529;44.342;25.944;2023-08-31T11:42:04;100107.72;;;33.36;57.36
49122;BME280;35529;44.342;25.944;2023-08-31T11:47:22;100114.78;;;33.01;54.65
49122;BME280;35529;44.342;25.944;2023-08-31T11:50:20;100100.94;;;32.98;55.81
49122;BME280;35529;44.342;25.944;2023-08-31T11:53:28;100105.00;;;33.04;57.64
49122;BME280;35529;44.342;25.944;2023-08-31T12:48:37;100087.56;;;33.71;40.29
49122;BME280;35529;44.342;25.944;2023-08-31T12:51:06;100084.69;;;33.44;41.02
49122;BME280;35529;44.342;25.944;2023-08-31T12:57:19;100078.38;;;33.63;41.91
49122;BME280;35529;44.342;25.944;2023-08-31T13:09:42;100087.22;;;33.92;39.87
49122;BME280;35529;44.342;25.944;2023-08-31T13:14:55;100088.53;;;33.79;39.95
49122;BME280;35529;44.342;25.944;2023-08-31T13:36:16;100089.16;;;33.33;39.59
49122;BME280;35529;44.342;25.944;2023-08-31T13:38:42;100080.56;;;33.34;39.31
49122;BME280;35529;44.342;25.944;2023-08-31T13:41:11;100089.91;;;33.49;38.89
49122;BME280;35529;44.342;25.944;2023-08-31T13:43:37;100087.19;;;33.53;38.50
49122;BME280;35529;44.342;25.944;2023-08-31T13:46:09;100083.56;;;33.49;38.36
49122;BME280;35529;44.342;25.944;2023-08-31T13:48:41;100085.84;;;33.43;37.67
49122;BME280;35529;44.342;25.944;2023-08-31T13:51:26;100086.41;;;33.33;36.70
49122;BME280;35529;44.342;25.944;2023-08-31T13:54:08;100078.44;;;33.28;36.29
49122;BME280;35529;44.342;25.944;2023-08-31T13:56:37;100089.31;;;33.40;36.70
49122;BME280;35529;44.342;25.944;2023-08-31T13:59:03;100080.13;;;33.52;36.38
49122;BME280;35529;44.342;25.944;2023-08-31T14:01:29;100088.00;;;33.53;36.41
49122;BME280;35529;44.342;25.944;2023-08-31T14:03:56;100088.66;;;33.47;37.72
49122;BME280;35529;44.342;25.944;2023-08-31T14:06:22;100088.50;;;33.39;37.87
49122;BME280;35529;44.342;25.944;2023-08-31T14:08:48;100084.47;;;33.33;37.84
49122;BME280;35529;44.342;25.944;2023-08-31T14:11:14;100094.66;;;33.17;36.83
49122;BME280;35529;44.342;25.944;2023-08-31T14:13:42;100092.22;;;33.12;37.37
49122;BME280;35529;44.342;25.944;2023-08-31T14:16:08;100090.59;;;33.27;37.71
49122;BME280;35529;44.342;25.944;2023-08-31T14:18:34;100096.00;;;33.23;37.80
49122;BME280;35529;44.342;25.944;2023-08-31T14:21:01;100098.06;;;33.10;39.16
49122;BME280;35529;44.342;25.944;2023-08-31T14:23:27;100094.34;;;33.18;38.70
49122;BME280;35529;44.342;25.944;2023-08-31T14:25:53;100103.06;;;33.04;39.34
49122;BME280;35529;44.342;25.944;2023-08-31T14:28:19;100097.41;;;32.97;39.36
49122;BME280;35529;44.342;25.944;2023-08-31T14:30:45;100087.69;;;33.03;39.83
49122;BME280;35529;44.342;25.944;2023-08-31T14:33:11;100096.03;;;33.07;40.37
49122;BME280;35529;44.342;25.944;2023-08-31T14:35:37;100095.28;;;32.90;38.14
49122;BME280;35529;44.342;25.944;2023-08-31T14:38:04;100088.09;;;32.70;38.13
49122;BME280;35529;44.342;25.944;2023-08-31T14:40:30;100101.94;;;32.57;38.09
49122;BME280;35529;44.342;25.944;2023-08-31T14:42:56;100100.38;;;32.40;38.65
49122;BME280;35529;44.342;25.944;2023-08-31T14:45:22;100094.06;;;32.40;39.85
49122;BME280;35529;44.342;25.944;2023-08-31T14:47:49;100093.44;;;32.47;39.24
49122;BME280;35529;44.342;25.944;2023-08-31T14:50:15;100106.47;;;32.34;39.44
49122;BME280;35529;44.342;25.944;2023-08-31T14:52:41;100099.44;;;32.52;39.85
49122;BME280;35529;44.342;25.944;2023-08-31T14:55:07;100097.59;;;32.56;39.93
49122;BME280;35529;44.342;25.944;2023-08-31T14:57:33;100095.75;;;32.77;40.47
49122;BME280;35529;44.342;25.944;2023-08-31T14:59:59;100093.41;;;32.95;40.04
49122;BME280;35529;44.342;25.944;2023-08-31T15:02:26;100098.91;;;32.95;40.31
49122;BME280;35529;44.342;25.944;2023-08-31T15:04:52;100096.06;;;32.91;40.05
49122;BME280;35529;44.342;25.944;2023-08-31T15:07:19;100091.16;;;32.81;40.93
49122;BME280;35529;44.342;25.944;2023-08-31T15:09:45;100092.28;;;32.64;41.17
49122;BME280;35529;44.342;25.944;2023-08-31T15:12:11;100085.81;;;32.72;40.99
49122;BME280;35529;44.342;25.944;2023-08-31T15:14:38;100096.00;;;32.87;40.63
49122;BME280;35529;44.342;25.944;2023-08-31T15:17:04;100086.19;;;33.06;38.62
49122;BME280;35529;44.342;25.944;2023-08-31T15:19:31;100082.59;;;33.21;38.01
49122;BME280;35529;44.342;25.944;2023-08-31T15:22:00;100080.69;;;33.41;37.85
49122;BME280;35529;44.342;25.944;2023-08-31T15:24:26;100080.59;;;34.20;37.56
49122;BME280;35529;44.342;25.944;2023-08-31T15:26:52;100076.59;;;35.17;35.03
49122;BME280;35529;44.342;25.944;2023-08-31T15:29:18;100075.88;;;36.30;33.01
49122;BME280;35529;44.342;25.944;2023-08-31T15:31:45;100070.03;;;36.90;30.31
49122;BME280;35529;44.342;25.944;2023-08-31T15:34:11;100074.63;;;36.68;29.65
49122;BME280;35529;44.342;25.944;2023-08-31T15:36:38;100072.50;;;37.06;28.79
49122;BME280;35529;44.342;25.944;2023-08-31T15:39:04;100067.66;;;37.77;28.36